TimePST,TemperatureF,Dew PointF,Humidity,Sea Level PressureIn,VisibilityMPH,Wind Direction,Wind SpeedMPH,Gust SpeedMPH,PrecipitationIn,Events,Conditions,WindDirDegrees,DateUTC
12:56 AM,36.0,33.1,89,30.11,10.0,Calm,Calm,-,N/A,,Scattered Clouds,0,2013-02-21 08:56:00
1:56 AM,34.0,30.9,89,30.11,10.0,Calm,Calm,-,N/A,,Clear,0,2013-02-21 09:56:00
2:56 AM,34.0,30.9,89,30.11,10.0,Calm,Calm,-,N/A,,Clear,0,2013-02-21 10:56:00
3:56 AM,34.0,30.0,85,30.11,10.0,Calm,Calm,-,N/A,,Clear,0,2013-02-21 11:56:00
4:56 AM,33.1,30.0,89,30.12,10.0,Variable,4.6,-,N/A,,Clear,0,2013-02-21 12:56:00
5:56 AM,34.0,30.9,89,30.12,10.0,Calm,Calm,-,N/A,,Clear,0,2013-02-21 13:56:00
6:56 AM,33.1,30.0,89,30.15,10.0,Calm,Calm,-,N/A,,Clear,0,2013-02-21 14:56:00
7:56 AM,36.0,32.0,86,30.18,10.0,NW,3.5,-,N/A,,Clear,310,2013-02-21 15:56:00
8:56 AM,43.0,34.0,71,30.19,10.0,NNW,3.5,-,N/A,,Clear,330,2013-02-21 16:56:00
9:56 AM,46.9,33.1,59,30.19,10.0,North,4.6,-,N/A,,Clear,350,2013-02-21 17:56:00
10:56 AM,51.1,34.0,52,30.19,10.0,Calm,Calm,-,N/A,,Clear,0,2013-02-21 18:56:00
11:56 AM,54.0,34.0,47,30.17,10.0,Calm,Calm,-,N/A,,Clear,0,2013-02-21 19:56:00
12:56 PM,57.9,26.1,30,30.15,10.0,NNW,10.4,-,N/A,,Clear,330,2013-02-21 20:56:00
1:56 PM,57.0,27.0,32,30.14,10.0,NW,9.2,-,N/A,,Clear,310,2013-02-21 21:56:00
2:56 PM,57.9,32.0,37,30.12,10.0,WNW,5.8,-,N/A,,Clear,300,2013-02-21 22:56:00
3:56 PM,57.0,34.0,42,30.11,10.0,NW,8.1,-,N/A,,Clear,310,2013-02-21 23:56:00
4:56 PM,55.0,35.1,47,30.12,10.0,WNW,13.8,20.7,N/A,,Clear,290,2013-02-22 00:56:00
5:56 PM,52.0,34.0,50,30.14,10.0,Variable,3.5,-,N/A,,Clear,0,2013-02-22 01:56:00
6:56 PM,50.0,34.0,54,30.17,10.0,North,4.6,-,N/A,,Clear,360,2013-02-22 02:56:00
7:56 PM,45.0,35.1,68,30.17,10.0,Calm,Calm,-,N/A,,Clear,0,2013-02-22 03:56:00
8:56 PM,45.0,36.0,71,30.18,10.0,Calm,Calm,-,N/A,,Clear,0,2013-02-22 04:56:00
9:56 PM,43.0,36.0,76,30.19,10.0,Calm,Calm,-,N/A,,Clear,0,2013-02-22 05:56:00
10:56 PM,42.1,36.0,79,30.20,10.0,Calm,Calm,-,N/A,,Clear,0,2013-02-22 06:56:00
11:56 PM,43.0,35.1,74,30.20,10.0,Calm,Calm,-,N/A,,Clear,0,2013-02-22 07:56:00